Time;durP1;ratioP1;P1;durP2;ratioP2;P2;SDS_P1;SDS_P2;PMS_P1;PMS_P2;Temp;Humidity;BMP_temperature;BMP_pressure;BME280_temperature;BME280_humidity;BME280_pressure;Samples;Min_cycle;Max_cycle;Signal;HPM_P1;HPM_P2
2022/02/22 00:01:35;;;;;;;5.10;1.40;;;5.20;99.90;;;;;;5003204;28;21139;-77
2022/02/22 00:04:01;;;;;;;6.03;1.20;;;5.30;99.90;;;;;;5001132;28;20187;-80
2022/02/22 00:06:26;;;;;;;9.80;1.73;;;5.20;99.90;;;;;;5001602;28;20195;-79
2022/02/22 00:08:52;;;;;;;7.33;1.63;;;5.20;99.90;;;;;;5003879;28;20242;-78
2022/02/22 00:11:18;;;;;;;7.77;1.40;;;5.20;99.90;;;;;;5020282;28;20188;-78
2022/02/22 00:13:43;;;;;;;5.33;1.20;;;5.20;99.90;;;;;;5016058;28;20207;-78
2022/02/22 00:16:09;;;;;;;5.83;1.53;;;5.10;99.90;;;;;;5002739;28;20191;-78
2022/02/22 00:18:34;;;;;;;5.67;1.67;;;5.10;99.90;;;;;;5003341;28;20195;-79
2022/02/22 00:21:00;;;;;;;4.40;1.13;;;5.10;99.90;;;;;;5000731;28;20175;-78
2022/02/22 00:23:26;;;;;;;6.47;1.63;;;5.20;99.90;;;;;;4999025;28;20635;-79
2022/02/22 00:25:51;;;;;;;6.77;1.70;;;5.10;99.90;;;;;;5016694;28;20658;-80
2022/02/22 00:28:20;;;;;;;2.33;1.20;;;5.20;99.90;;;;;;5001342;28;20212;-79
2022/02/22 00:30:49;;;;;;;6.63;1.17;;;5.20;99.90;;;;;;4999778;28;20564;-82
2022/02/22 00:33:15;;;;;;;7.87;1.23;;;5.10;99.90;;;;;;5000555;28;20184;-78
2022/02/22 00:35:41;;;;;;;4.33;1.57;;;5.10;99.90;;;;;;5001049;28;20196;-76
2022/02/22 00:38:06;;;;;;;4.80;1.60;;;5.10;99.90;;;;;;4999821;28;20673;-79
2022/02/22 00:40:32;;;;;;;4.43;1.07;;;5.00;99.90;;;;;;5002324;28;20414;-81
2022/02/22 00:42:57;;;;;;;4.50;1.00;;;5.10;99.90;;;;;;5003010;28;20188;-77
2022/02/22 00:45:23;;;;;;;7.93;1.20;;;5.00;99.90;;;;;;5000003;28;20199;-79
2022/02/22 00:47:48;;;;;;;7.03;1.43;;;5.00;99.90;;;;;;5015934;28;20207;-79
2022/02/22 00:50:14;;;;;;;5.00;1.40;;;5.00;99.90;;;;;;5000455;28;20251;-77
2022/02/22 00:52:40;;;;;;;6.67;1.47;;;5.00;99.90;;;;;;5002400;28;20188;-78
2022/02/22 00:55:06;;;;;;;6.27;1.63;;;5.00;99.90;;;;;;5000081;28;20184;-78
2022/02/22 00:57:32;;;;;;;4.37;1.83;;;5.00;99.90;;;;;;5001251;28;20193;-77
2022/02/22 00:59:57;;;;;;;5.47;1.23;;;5.00;99.90;;;;;;5001266;28;20215;-78
2022/02/22 01:02:23;;;;;;;8.07;2.00;;;5.00;99.90;;;;;;5003919;28;20207;-78
2022/02/22 01:04:49;;;;;;;4.83;1.57;;;4.90;99.90;;;;;;5010621;28;20192;-78
2022/02/22 01:07:17;;;;;;;5.13;1.33;;;4.90;99.90;;;;;;5002138;28;20212;-77
2022/02/22 01:09:46;;;;;;;7.90;2.17;;;4.90;99.90;;;;;;5006306;28;20866;-76
2022/02/22 01:12:13;;;;;;;6.43;1.87;;;4.90;99.90;;;;;;5017220;28;20201;-76
2022/02/22 01:14:39;;;;;;;9.67;2.70;;;5.00;99.90;;;;;;5001651;28;20251;-79
2022/02/22 01:17:05;;;;;;;11.43;1.70;;;5.00;99.90;;;;;;5003189;28;20195;-77
2022/02/22 01:19:30;;;;;;;5.40;1.20;;;4.90;99.90;;;;;;5017566;28;20302;-79
2022/02/22 01:21:56;;;;;;;6.43;1.67;;;4.90;99.90;;;;;;5016623;28;20203;-79
2022/02/22 01:24:22;;;;;;;9.90;2.37;;;5.00;99.90;;;;;;4999833;28;20180;-78
2022/02/22 01:26:47;;;;;;;9.93;1.50;;;4.90;99.90;;;;;;5000981;28;20258;-79
2022/02/22 01:29:13;;;;;;;9.23;2.40;;;4.90;99.90;;;;;;5000937;28;20200;-81
2022/02/22 01:31:39;;;;;;;8.57;1.80;;;4.90;99.90;;;;;;5000739;28;20191;-77
2022/02/22 01:34:04;;;;;;;7.20;1.53;;;5.00;99.90;;;;;;4999981;28;20555;-79
2022/02/22 01:36:30;;;;;;;7.30;1.87;;;4.90;99.90;;;;;;5016801;28;20692;-77
2022/02/22 01:38:55;;;;;;;4.97;1.30;;;4.80;99.90;;;;;;5016202;28;20207;-77
2022/02/22 01:41:23;;;;;;;8.77;1.70;;;4.80;99.90;;;;;;5000316;28;20180;-78
2022/02/22 01:43:49;;;;;;;7.87;1.40;;;4.80;99.90;;;;;;5015264;28;20263;-79
2022/02/22 01:46:15;;;;;;;9.80;2.20;;;4.80;99.90;;;;;;5000133;28;20176;-81
2022/02/22 01:48:41;;;;;;;6.50;1.83;;;4.80;99.90;;;;;;4999843;28;20188;-80
2022/02/22 01:51:06;;;;;;;12.00;1.77;;;4.70;99.90;;;;;;4998616;28;20578;-79
2022/02/22 01:53:35;;;;;;;13.17;2.60;;;4.80;99.90;;;;;;4998101;28;20191;-77
2022/02/22 01:56:02;;;;;;;13.90;2.47;;;4.70;99.90;;;;;;5000645;28;20255;-80
2022/02/22 01:58:29;;;;;;;11.63;2.27;;;4.70;99.90;;;;;;4998565;28;20180;-77
2022/02/22 02:00:54;;;;;;;9.13;1.90;;;4.60;99.90;;;;;;4999987;28;20200;-76
2022/02/22 02:03:20;;;;;;;12.60;2.30;;;4.60;99.90;;;;;;4998609;28;20242;-78
2022/02/22 02:05:46;;;;;;;8.30;2.13;;;4.50;99.90;;;;;;4999413;28;20551;-77
2022/02/22 02:08:12;;;;;;;11.13;2.57;;;4.60;99.90;;;;;;4998869;28;20261;-78
2022/02/22 02:10:38;;;;;;;11.43;1.73;;;4.60;99.90;;;;;;4998835;28;20219;-76
2022/02/22 02:13:04;;;;;;;12.50;2.17;;;4.50;99.90;;;;;;4999748;28;20596;-77
2022/02/22 02:15:30;;;;;;;10.03;1.83;;;4.40;99.90;;;;;;4998126;28;20188;-77
2022/02/22 02:17:56;;;;;;;7.77;1.63;;;4.30;99.90;;;;;;5000012;28;20180;-78
2022/02/22 02:20:22;;;;;;;11.57;2.73;;;4.20;99.90;;;;;;5001028;28;20202;-75
2022/02/22 02:22:48;;;;;;;10.43;2.50;;;4.20;99.90;;;;;;5014683;28;20180;-76
2022/02/22 02:25:15;;;;;;;9.23;1.90;;;4.10;99.90;;;;;;4998073;28;20195;-79
2022/02/22 02:27:41;;;;;;;10.43;1.67;;;4.10;99.90;;;;;;5015615;28;20693;-78
2022/02/22 02:30:08;;;;;;;9.27;2.23;;;4.20;99.90;;;;;;4998031;28;20208;-78
2022/02/22 02:32:34;;;;;;;9.23;2.63;;;4.20;99.90;;;;;;5005878;28;20232;-78
2022/02/22 02:35:00;;;;;;;10.10;1.90;;;4.20;99.90;;;;;;4999957;28;20199;-80
2022/02/22 02:37:26;;;;;;;9.63;2.03;;;4.10;99.90;;;;;;5001596;28;20187;-78
2022/02/22 02:39:52;;;;;;;9.63;1.53;;;4.10;99.90;;;;;;4998822;28;20859;-77
2022/02/22 02:42:18;;;;;;;11.77;2.30;;;4.10;99.90;;;;;;4995406;28;20772;-78
2022/02/22 02:44:45;;;;;;;7.63;1.63;;;4.10;99.90;;;;;;5014042;28;20184;-78
2022/02/22 02:47:12;;;;;;;11.63;2.00;;;3.90;99.90;;;;;;4999916;28;20204;-77
2022/02/22 02:49:38;;;;;;;7.07;1.47;;;3.90;99.90;;;;;;5013988;28;20266;-78
2022/02/22 02:52:05;;;;;;;6.30;1.10;;;3.80;99.90;;;;;;4999615;28;20273;-79
2022/02/22 02:54:30;;;;;;;5.77;1.40;;;3.60;99.90;;;;;;5012005;28;20700;-79
2022/02/22 02:56:56;;;;;;;6.17;1.50;;;3.50;99.90;;;;;;4999552;28;20188;-79
2022/02/22 02:59:21;;;;;;;3.20;1.20;;;3.50;99.90;;;;;;5014533;28;20203;-79
2022/02/22 03:01:47;;;;;;;3.27;1.33;;;3.40;99.90;;;;;;4997349;28;20191;-78
2022/02/22 03:04:13;;;;;;;6.20;1.33;;;3.50;99.90;;;;;;5014470;28;20184;-77
2022/02/22 03:06:39;;;;;;;4.33;1.30;;;3.50;99.90;;;;;;4999200;28;20207;-77
2022/02/22 03:09:06;;;;;;;4.63;1.53;;;3.60;99.90;;;;;;4996883;28;20223;-76
2022/02/22 03:11:32;;;;;;;6.17;1.87;;;3.60;99.90;;;;;;4999196;28;20575;-80
2022/02/22 03:13:57;;;;;;;7.20;1.97;;;3.70;99.90;;;;;;5012964;28;20196;-77
2022/02/22 03:16:23;;;;;;;13.83;1.70;;;3.70;99.90;;;;;;5015519;28;20184;-78
2022/02/22 03:18:49;;;;;;;10.57;2.00;;;3.70;99.90;;;;;;4998107;28;20196;-78
2022/02/22 03:21:15;;;;;;;9.27;2.00;;;3.70;99.90;;;;;;5014909;28;20183;-76
2022/02/22 03:23:40;;;;;;;8.93;1.63;;;3.60;99.90;;;;;;4999080;28;20214;-77
2022/02/22 03:26:07;;;;;;;13.33;2.80;;;3.60;99.90;;;;;;4998154;28;20357;-77
2022/02/22 03:28:32;;;;;;;17.60;2.40;;;3.60;99.90;;;;;;5001001;28;20587;-76
2022/02/22 03:31:00;;;;;;;9.07;1.73;;;3.60;99.90;;;;;;5000637;28;20207;-77
2022/02/22 03:33:26;;;;;;;14.17;2.10;;;3.70;99.90;;;;;;5015222;28;21175;-78
2022/02/22 03:35:52;;;;;;;18.53;2.40;;;3.80;99.90;;;;;;4999718;28;20199;-79
2022/02/22 03:38:17;;;;;;;12.17;2.40;;;3.90;99.90;;;;;;4997409;28;20196;-77
2022/02/22 03:40:43;;;;;;;12.40;2.50;;;3.90;99.90;;;;;;4995989;28;20239;-77
2022/02/22 03:43:08;;;;;;;8.07;2.33;;;4.00;99.90;;;;;;4997425;28;20199;-78
2022/02/22 03:45:34;;;;;;;18.07;2.60;;;4.10;99.90;;;;;;5012797;28;20207;-78
2022/02/22 03:48:00;;;;;;;10.40;2.23;;;4.10;99.90;;;;;;4996784;28;20219;-78
2022/02/22 03:50:25;;;;;;;9.70;2.43;;;4.00;99.90;;;;;;5002003;28;20291;-80
2022/02/22 03:52:51;;;;;;;9.37;2.23;;;4.00;99.90;;;;;;5004363;28;20175;-79
2022/02/22 03:55:17;;;;;;;10.93;2.27;;;4.00;99.90;;;;;;5005450;28;20229;-80
2022/02/22 03:57:44;;;;;;;10.23;2.73;;;3.90;99.90;;;;;;5003360;28;20323;-81
2022/02/22 04:00:20;;;;;;;13.17;2.17;;;3.90;99.90;;;;;;5005405;28;20295;-80
2022/02/22 04:02:46;;;;;;;10.40;2.50;;;3.90;99.90;;;;;;5019461;28;20214;-79
2022/02/22 04:05:13;;;;;;;8.77;2.33;;;3.80;99.90;;;;;;5002642;28;20192;-78
2022/02/22 04:07:38;;;;;;;9.33;2.10;;;3.70;99.90;;;;;;5005279;28;20258;-78
2022/02/22 04:10:06;;;;;;;9.43;1.90;;;3.70;99.90;;;;;;5005128;28;20208;-79
2022/02/22 04:12:32;;;;;;;5.93;1.80;;;3.70;99.90;;;;;;5004516;28;20215;-78
2022/02/22 04:14:57;;;;;;;8.27;2.00;;;3.60;99.90;;;;;;5021815;28;20671;-78
2022/02/22 04:17:23;;;;;;;10.83;2.23;;;3.60;99.90;;;;;;5021338;28;20718;-78
2022/02/22 04:19:49;;;;;;;11.13;2.50;;;3.50;99.90;;;;;;5005400;28;20204;-78
2022/02/22 04:22:16;;;;;;;9.80;1.90;;;3.50;99.90;;;;;;5002204;28;20253;-80
2022/02/22 04:24:42;;;;;;;9.23;1.97;;;3.40;99.90;;;;;;5006020;28;20191;-77
2022/02/22 04:27:07;;;;;;;7.67;1.70;;;3.30;99.90;;;;;;5006783;28;20273;-78
2022/02/22 04:29:33;;;;;;;9.87;2.00;;;3.40;99.90;;;;;;5004939;28;20212;-75
2022/02/22 04:32:01;;;;;;;7.90;2.27;;;3.40;99.90;;;;;;5021240;28;20191;-78
2022/02/22 04:34:26;;;;;;;7.13;2.27;;;3.40;99.90;;;;;;5005106;28;20187;-78
2022/02/22 04:36:52;;;;;;;9.53;1.80;;;3.40;99.90;;;;;;5005173;28;20191;-78
2022/02/22 04:39:18;;;;;;;9.93;2.17;;;3.40;99.90;;;;;;5004444;28;20215;-78
2022/02/22 04:41:43;;;;;;;10.00;2.03;;;3.30;99.90;;;;;;5005559;28;20192;-78
2022/02/22 04:44:09;;;;;;;12.00;1.70;;;3.30;99.90;;;;;;5005822;28;20207;-79
2022/02/22 04:46:34;;;;;;;11.67;2.47;;;3.20;99.90;;;;;;5005227;28;20264;-79
2022/02/22 04:49:00;;;;;;;9.03;1.70;;;3.20;99.90;;;;;;5018496;28;20208;-78
2022/02/22 04:51:26;;;;;;;11.67;2.63;;;3.10;99.90;;;;;;5006602;28;20286;-77
2022/02/22 04:53:51;;;;;;;9.20;2.07;;;3.10;99.90;;;;;;5004301;28;20239;-79
2022/02/22 04:56:17;;;;;;;5.70;1.73;;;3.10;99.90;;;;;;5004858;28;20195;-78
2022/02/22 04:58:43;;;;;;;8.53;1.70;;;3.10;99.90;;;;;;5021359;28;20195;-79
2022/02/22 05:01:09;;;;;;;8.27;2.80;;;3.10;99.90;;;;;;5002903;28;21008;-79
2022/02/22 05:03:35;;;;;;;10.93;2.23;;;3.10;99.90;;;;;;5001904;28;20203;-77
2022/02/22 05:06:00;;;;;;;11.37;2.67;;;3.10;99.90;;;;;;5001959;28;20216;-79
2022/02/22 05:08:26;;;;;;;9.60;1.83;;;3.00;99.90;;;;;;5002405;28;20215;-78
2022/02/22 05:10:53;;;;;;;11.60;3.03;;;3.10;99.90;;;;;;5009891;28;20210;-78
2022/02/22 05:13:19;;;;;;;12.57;2.30;;;3.10;99.90;;;;;;5002730;28;20188;-77
2022/02/22 05:15:44;;;;;;;12.77;1.90;;;3.10;99.90;;;;;;5003098;28;20271;-79
2022/02/22 05:18:10;;;;;;;8.60;2.10;;;3.10;99.90;;;;;;5005676;28;20226;-76
2022/02/22 05:20:35;;;;;;;6.67;1.97;;;3.10;99.90;;;;;;5018686;28;20208;-77
2022/02/22 05:23:01;;;;;;;13.13;2.37;;;3.10;99.90;;;;;;5002068;28;20568;-78
2022/02/22 05:25:26;;;;;;;7.60;2.27;;;3.10;99.90;;;;;;5000623;28;20179;-79
2022/02/22 05:27:52;;;;;;;10.33;1.93;;;3.00;99.90;;;;;;5000914;28;20234;-76
2022/02/22 05:30:18;;;;;;;11.97;2.40;;;3.00;99.90;;;;;;4996140;28;20206;-77
2022/02/22 05:32:45;;;;;;;10.47;2.43;;;2.90;99.90;;;;;;4991477;28;20580;-77
2022/02/22 05:35:12;;;;;;;8.17;2.40;;;3.00;99.90;;;;;;5009185;28;20188;-77
2022/02/22 05:37:39;;;;;;;11.47;2.27;;;3.00;99.90;;;;;;5006903;28;20191;-77
2022/02/22 05:40:07;;;;;;;11.83;3.17;;;3.00;99.90;;;;;;4997142;28;20207;-80
2022/02/22 05:42:33;;;;;;;13.70;2.93;;;3.00;99.90;;;;;;5002790;28;20194;-78
2022/02/22 05:44:59;;;;;;;11.57;2.60;;;3.00;99.90;;;;;;5007668;28;20647;-81
2022/02/22 05:47:26;;;;;;;11.47;2.50;;;3.00;99.90;;;;;;5002800;28;20214;-78
2022/02/22 05:49:52;;;;;;;11.60;2.17;;;3.00;99.90;;;;;;5021488;28;20208;-79
2022/02/22 05:52:17;;;;;;;11.57;2.43;;;2.90;99.90;;;;;;5011771;28;20188;-78
2022/02/22 05:54:43;;;;;;;11.40;2.70;;;3.00;99.90;;;;;;5001727;28;20621;-80
2022/02/22 05:57:10;;;;;;;10.80;2.70;;;2.90;99.90;;;;;;4995570;28;20192;-80
2022/02/22 05:59:36;;;;;;;11.40;2.60;;;2.90;99.90;;;;;;4990177;28;20523;-80
2022/02/22 06:02:01;;;;;;;10.80;2.00;;;3.00;99.90;;;;;;4999452;28;20199;-78
2022/02/22 06:04:27;;;;;;;13.90;3.23;;;3.00;99.90;;;;;;5017285;28;20183;-77
2022/02/22 06:06:53;;;;;;;14.50;3.47;;;2.90;99.90;;;;;;5017038;28;20240;-78
2022/02/22 06:09:19;;;;;;;9.70;2.27;;;2.90;99.90;;;;;;4996482;28;20204;-79
2022/02/22 06:11:45;;;;;;;12.07;2.33;;;2.90;99.90;;;;;;5005669;28;20666;-79
2022/02/22 06:14:11;;;;;;;13.27;3.33;;;2.90;99.90;;;;;;5015486;28;20184;-76
2022/02/22 06:16:36;;;;;;;15.47;3.03;;;2.80;99.90;;;;;;4993731;28;20196;-77
2022/02/22 06:19:02;;;;;;;11.83;2.43;;;2.90;99.90;;;;;;4998808;28;20206;-80
2022/02/22 06:21:28;;;;;;;10.87;2.97;;;2.90;99.90;;;;;;5008269;28;20479;-80
2022/02/22 06:23:53;;;;;;;14.33;2.57;;;2.90;99.90;;;;;;4989156;28;20192;-78
2022/02/22 06:26:19;;;;;;;14.00;3.90;;;2.90;99.90;;;;;;4995544;28;20238;-78
2022/02/22 06:28:46;;;;;;;12.70;2.60;;;2.90;99.90;;;;;;5010056;28;20235;-79
2022/02/22 06:31:12;;;;;;;12.23;2.37;;;2.90;99.90;;;;;;5016885;28;20188;-78
2022/02/22 06:33:38;;;;;;;9.83;2.47;;;2.80;99.90;;;;;;5000165;28;20207;-80
2022/02/22 06:36:04;;;;;;;12.93;2.33;;;2.90;99.90;;;;;;5001612;28;20190;-79
2022/02/22 06:38:29;;;;;;;11.50;2.23;;;2.90;99.90;;;;;;5001661;28;20207;-80
2022/02/22 06:40:55;;;;;;;11.23;2.07;;;3.00;99.90;;;;;;5002272;28;20208;-81
2022/02/22 06:43:21;;;;;;;15.53;2.80;;;3.00;99.90;;;;;;5000309;28;20196;-78
2022/02/22 06:45:47;;;;;;;14.03;2.23;;;3.00;99.90;;;;;;5002912;28;20179;-79
2022/02/22 06:48:14;;;;;;;8.30;2.17;;;3.00;99.90;;;;;;5001751;28;20287;-79
2022/02/22 06:50:40;;;;;;;9.93;2.90;;;3.00;99.90;;;;;;5003054;28;20293;-80
2022/02/22 06:53:06;;;;;;;12.70;2.10;;;3.10;99.90;;;;;;5017969;28;20183;-78
2022/02/22 06:55:32;;;;;;;11.87;2.40;;;3.20;99.90;;;;;;5001141;28;20792;-79
2022/02/22 06:58:09;;;;;;;16.13;2.90;;;3.30;99.90;;;;;;5016437;28;20195;-78
2022/02/22 07:00:41;;;;;;;11.93;2.20;;;3.40;99.90;;;;;;5015054;28;20238;-79
2022/02/22 07:03:07;;;;;;;15.00;2.23;;;3.60;99.90;;;;;;5000968;28;20200;-77
2022/02/22 07:05:34;;;;;;;9.60;2.47;;;3.60;99.90;;;;;;5001480;28;20190;-78
2022/02/22 07:07:59;;;;;;;10.23;2.93;;;3.60;99.90;;;;;;5002354;28;20207;-77
2022/02/22 07:10:26;;;;;;;14.23;2.57;;;3.60;99.90;;;;;;5014513;28;20246;-78
2022/02/22 07:12:52;;;;;;;9.00;2.40;;;3.70;99.90;;;;;;5001092;28;20203;-79
2022/02/22 07:15:18;;;;;;;11.60;2.60;;;3.80;99.90;;;;;;5004064;28;20685;-78
2022/02/22 07:17:52;;;;;;;12.00;2.40;;;3.80;99.90;;;;;;4999915;28;20223;-78
2022/02/22 07:20:19;;;;;;;13.40;2.40;;;3.80;99.90;;;;;;5015885;28;20291;-78
2022/02/22 07:22:46;;;;;;;12.27;2.67;;;3.80;99.90;;;;;;5017889;28;20283;-77
2022/02/22 07:25:13;;;;;;;14.43;3.00;;;3.70;99.90;;;;;;5003016;28;20195;-78
2022/02/22 07:27:39;;;;;;;14.60;2.77;;;3.80;99.90;;;;;;5019741;28;20212;-79
2022/02/22 07:30:06;;;;;;;11.03;3.10;;;3.80;99.90;;;;;;5005994;28;20200;-79
2022/02/22 07:32:35;;;;;;;11.40;2.87;;;3.80;99.90;;;;;;5005195;28;20271;-78
2022/02/22 07:35:01;;;;;;;17.13;2.87;;;3.90;99.90;;;;;;5013805;28;20190;-77
2022/02/22 07:37:26;;;;;;;12.00;2.73;;;3.90;99.90;;;;;;5003202;28;20197;-79
2022/02/22 07:39:52;;;;;;;10.47;2.13;;;3.90;99.90;;;;;;5001172;28;20254;-78
2022/02/22 07:42:18;;;;;;;15.87;2.57;;;4.00;99.90;;;;;;5004891;28;20187;-78
2022/02/22 07:44:44;;;;;;;10.17;2.47;;;4.10;99.90;;;;;;5002008;28;20192;-78
2022/02/22 07:47:09;;;;;;;15.57;2.60;;;4.20;99.90;;;;;;5019371;28;20215;-78
2022/02/22 07:49:35;;;;;;;13.87;2.40;;;4.20;99.90;;;;;;5015214;28;20222;-77
2022/02/22 07:52:00;;;;;;;7.90;1.93;;;4.10;99.90;;;;;;5015936;28;20700;-77
2022/02/22 07:54:26;;;;;;;12.27;3.27;;;4.00;99.90;;;;;;4999216;28;20191;-77
2022/02/22 07:56:51;;;;;;;13.30;2.70;;;4.00;99.90;;;;;;5000248;28;20234;-77
2022/02/22 07:59:18;;;;;;;14.33;2.77;;;4.00;99.90;;;;;;4997396;28;20255;-77
2022/02/22 08:01:43;;;;;;;13.97;2.63;;;4.10;99.90;;;;;;5003249;28;20192;-78
2022/02/22 08:04:09;;;;;;;11.83;2.70;;;4.10;99.90;;;;;;5006758;28;20901;-79
2022/02/22 08:06:35;;;;;;;6.73;2.30;;;4.20;99.90;;;;;;5018659;28;20188;-79
2022/02/22 08:09:01;;;;;;;11.60;3.10;;;4.40;99.90;;;;;;5004385;28;20271;-81
2022/02/22 08:11:31;;;;;;;11.33;2.40;;;4.40;99.90;;;;;;5019595;28;20207;-78
2022/02/22 08:13:59;;;;;;;13.13;2.53;;;4.50;99.90;;;;;;5002393;28;20176;-80
2022/02/22 08:16:27;;;;;;;9.10;2.27;;;4.60;99.90;;;;;;5004596;28;20308;-78
2022/02/22 08:18:54;;;;;;;10.30;2.30;;;4.60;99.90;;;;;;5018982;28;20589;-78
2022/02/22 08:21:20;;;;;;;11.43;4.07;;;4.70;99.90;;;;;;5005166;28;20216;-77
2022/02/22 08:23:46;;;;;;;11.77;2.67;;;4.90;99.90;;;;;;5005569;28;20298;-76
2022/02/22 08:26:11;;;;;;;7.67;2.50;;;5.00;99.90;;;;;;5013517;28;20272;-76
2022/02/22 08:28:37;;;;;;;8.90;2.50;;;5.00;99.90;;;;;;5001734;28;20392;-78
2022/02/22 08:31:04;;;;;;;16.27;3.23;;;5.00;99.90;;;;;;5010222;28;20180;-81
2022/02/22 08:33:30;;;;;;;8.83;2.60;;;5.20;99.90;;;;;;5010791;28;20230;-79
2022/02/22 08:35:57;;;;;;;15.13;2.73;;;5.50;99.90;;;;;;5000962;28;20192;-78
2022/02/22 08:38:22;;;;;;;10.07;2.60;;;5.60;99.90;;;;;;5007354;28;20278;-77
2022/02/22 08:40:49;;;;;;;10.30;2.37;;;5.70;99.90;;;;;;4995208;28;20258;-77
2022/02/22 08:43:15;;;;;;;12.73;2.70;;;5.60;99.90;;;;;;5006023;28;20281;-77
2022/02/22 08:45:43;;;;;;;7.37;2.00;;;5.50;99.90;;;;;;5014611;28;20219;-80
2022/02/22 08:48:09;;;;;;;11.40;2.63;;;5.40;99.90;;;;;;5013630;28;20215;-79
2022/02/22 08:50:35;;;;;;;14.27;2.50;;;5.50;99.90;;;;;;5010445;28;20207;-79
2022/02/22 08:53:01;;;;;;;14.50;2.87;;;5.70;99.90;;;;;;5001857;28;20195;-78
2022/02/22 08:55:28;;;;;;;14.57;3.23;;;5.80;99.90;;;;;;4996714;28;20669;-78
2022/02/22 08:57:56;;;;;;;11.23;1.90;;;5.90;99.90;;;;;;5007852;28;20195;-79
2022/02/22 09:00:23;;;;;;;9.27;2.23;;;5.90;99.90;;;;;;4997653;28;20449;-79
2022/02/22 09:02:53;;;;;;;6.73;2.63;;;5.70;99.90;;;;;;4997780;28;20294;-77
2022/02/22 09:05:19;;;;;;;14.00;2.50;;;5.50;99.90;;;;;;4993200;28;20180;-78
2022/02/22 09:07:45;;;;;;;8.40;2.87;;;5.50;99.90;;;;;;5015043;28;20612;-79
2022/02/22 09:10:15;;;;;;;13.53;2.63;;;5.70;99.90;;;;;;4997754;28;20203;-78
2022/02/22 09:12:41;;;;;;;9.87;2.20;;;5.80;99.90;;;;;;4995325;28;20188;-78
2022/02/22 09:15:08;;;;;;;12.23;2.10;;;5.90;99.90;;;;;;5008467;28;20597;-79
2022/02/22 09:17:34;;;;;;;10.23;2.30;;;5.90;99.90;;;;;;4990794;28;20218;-77
2022/02/22 09:20:02;;;;;;;11.40;2.20;;;5.90;99.90;;;;;;4995916;28;20244;-77
2022/02/22 09:22:27;;;;;;;12.27;2.83;;;5.90;99.90;;;;;;5010489;28;20903;-80
2022/02/22 09:24:53;;;;;;;10.73;2.97;;;6.00;99.90;;;;;;4991410;28;20197;-79
2022/02/22 09:27:19;;;;;;;11.17;2.50;;;6.00;99.90;;;;;;4992594;28;20207;-79
2022/02/22 09:29:45;;;;;;;10.60;2.40;;;6.10;99.90;;;;;;4988106;28;20196;-79
2022/02/22 09:32:11;;;;;;;8.30;2.47;;;6.30;99.90;;;;;;5009052;28;20637;-78
2022/02/22 09:34:37;;;;;;;13.10;3.10;;;6.50;99.90;;;;;;4998876;28;20290;-78
2022/02/22 09:37:04;;;;;;;13.33;2.13;;;6.70;99.90;;;;;;5014694;28;20562;-81
2022/02/22 09:39:31;;;;;;;9.17;2.07;;;6.60;99.90;;;;;;5003046;28;20215;-80
2022/02/22 09:41:58;;;;;;;11.43;2.60;;;6.70;99.90;;;;;;4999056;28;20167;-78
2022/02/22 09:44:24;;;;;;;12.20;2.50;;;6.60;99.90;;;;;;4996424;28;20184;-77
2022/02/22 09:46:50;;;;;;;13.00;2.27;;;6.70;99.90;;;;;;4998568;28;20190;-79
2022/02/22 09:49:16;;;;;;;11.03;2.33;;;6.70;99.90;;;;;;4995494;28;20254;-76
2022/02/22 09:51:41;;;;;;;5.30;1.83;;;7.00;99.90;;;;;;4995259;28;20188;-77
2022/02/22 09:54:07;;;;;;;10.90;2.30;;;7.00;99.90;;;;;;4992356;28;20657;-77
2022/02/22 09:56:44;;;;;;;7.73;2.67;;;7.10;99.90;;;;;;5012166;28;20192;-77
2022/02/22 09:59:10;;;;;;;9.17;2.40;;;7.10;99.90;;;;;;4995096;28;20250;-79
2022/02/22 10:01:39;;;;;;;12.37;3.30;;;7.20;99.90;;;;;;4996946;28;20188;-79
2022/02/22 10:04:05;;;;;;;10.47;2.00;;;7.30;99.90;;;;;;4999904;28;20206;-80
2022/02/22 10:06:31;;;;;;;6.60;1.87;;;7.00;99.90;;;;;;5000462;28;20188;-77
2022/02/22 10:08:57;;;;;;;10.70;2.70;;;6.90;99.90;;;;;;4998652;28;20213;-80
2022/02/22 10:11:23;;;;;;;10.70;1.70;;;7.00;99.90;;;;;;5000269;28;20604;-81
2022/02/22 10:13:49;;;;;;;11.57;2.57;;;7.10;99.90;;;;;;5010772;28;20175;-78
2022/02/22 10:16:15;;;;;;;8.13;2.20;;;7.20;99.90;;;;;;4998659;28;21149;-82
2022/02/22 10:18:54;;;;;;;13.10;3.20;;;7.40;99.90;;;;;;5001276;28;20187;-79
2022/02/22 10:21:21;;;;;;;9.17;2.10;;;7.50;99.90;;;;;;5002677;28;20190;-81
2022/02/22 10:23:53;;;;;;;14.93;3.17;;;7.70;99.90;;;;;;5014679;28;21273;-83
2022/02/22 10:26:24;;;;;;;4.73;1.83;;;7.60;99.90;;;;;;5008442;28;20617;-79
2022/02/22 10:28:50;;;;;;;11.37;2.30;;;7.50;99.90;;;;;;5001678;28;20215;-79
2022/02/22 10:31:15;;;;;;;12.93;2.60;;;7.40;99.90;;;;;;4999772;28;20191;-81
2022/02/22 10:33:44;;;;;;;10.17;2.13;;;7.20;99.90;;;;;;5001621;28;20184;-82
2022/02/22 10:36:20;;;;;;;10.03;2.23;;;7.00;99.90;;;;;;5015455;28;20184;-79
2022/02/22 10:38:47;;;;;;;8.30;2.03;;;6.90;99.90;;;;;;5000077;28;20265;-81
2022/02/22 10:41:15;;;;;;;8.47;2.20;;;7.30;99.90;;;;;;5003382;28;20568;-81
2022/02/22 10:43:53;;;;;;;8.30;1.90;;;7.50;99.90;;;;;;4997936;28;20184;-80
2022/02/22 10:46:27;;;;;;;9.67;2.73;;;7.50;99.90;;;;;;5001203;28;20190;-79
2022/02/22 10:49:12;;;;;;;8.83;1.87;;;7.40;99.90;;;;;;5000745;28;20215;-80
2022/02/22 10:51:43;;;;;;;8.73;2.03;;;7.30;99.90;;;;;;5004514;28;20258;-80
2022/02/22 10:54:16;;;;;;;7.43;2.10;;;7.40;99.90;;;;;;4999806;28;20546;-79
2022/02/22 10:56:43;;;;;;;8.43;2.53;;;7.50;99.90;;;;;;5000291;28;20275;-79
2022/02/22 10:59:08;;;;;;;6.60;2.17;;;7.50;99.90;;;;;;5000278;28;20258;-80
2022/02/22 11:01:34;;;;;;;11.63;2.83;;;7.50;99.90;;;;;;4997622;28;20330;-80
2022/02/22 11:04:00;;;;;;;9.97;2.10;;;7.50;99.90;;;;;;4993050;28;20188;-80
2022/02/22 11:06:26;;;;;;;10.97;2.67;;;7.60;99.90;;;;;;4999354;28;20791;-81
2022/02/22 11:08:54;;;;;;;7.53;2.20;;;7.50;99.90;;;;;;4998889;28;20384;-80
2022/02/22 11:11:37;;;;;;;6.07;2.03;;;7.50;99.90;;;;;;4993955;28;20207;-80
2022/02/22 11:14:09;;;;;;;9.33;1.90;;;7.50;99.90;;;;;;4997500;28;20176;-83
2022/02/22 11:16:41;;;;;;;9.27;2.53;;;7.60;99.90;;;;;;4998417;28;20662;-82
2022/02/22 11:19:20;;;;;;;6.07;1.80;;;7.60;99.90;;;;;;4994241;28;20204;-81
2022/02/22 11:21:50;;;;;;;11.33;1.90;;;7.70;99.90;;;;;;4996678;28;20202;-81
2022/02/22 11:24:18;;;;;;;7.37;1.60;;;7.70;99.90;;;;;;4996098;28;20183;-81
2022/02/22 11:26:48;;;;;;;7.83;1.83;;;8.00;99.90;;;;;;4995973;28;20286;-82
2022/02/22 11:29:14;;;;;;;6.80;1.60;;;8.20;99.90;;;;;;4996915;28;20208;-80
2022/02/22 11:31:40;;;;;;;7.43;1.30;;;8.20;99.90;;;;;;4995883;28;20196;-78
2022/02/22 11:34:07;;;;;;;12.67;2.13;;;8.20;99.90;;;;;;4998019;28;20669;-83
2022/02/22 11:36:39;;;;;;;5.97;1.83;;;8.20;99.90;;;;;;5000062;28;20960;-78
2022/02/22 11:39:06;;;;;;;5.17;1.40;;;8.40;99.90;;;;;;5016520;28;20215;-84
2022/02/22 11:41:42;;;;;;;10.50;2.03;;;8.50;99.90;;;;;;5002792;28;20188;-80
2022/02/22 11:44:22;;;;;;;9.13;1.73;;;8.60;99.90;;;;;;4999001;28;20191;-81
2022/02/22 11:46:54;;;;;;;7.57;1.90;;;8.30;99.90;;;;;;4999811;28;20184;-80
2022/02/22 11:49:29;;;;;;;5.67;1.67;;;8.20;99.90;;;;;;5014645;28;20238;-80
2022/02/22 11:52:08;;;;;;;8.57;1.80;;;8.40;99.90;;;;;;4999709;28;20180;-83
2022/02/22 11:54:34;;;;;;;8.60;2.27;;;8.40;99.90;;;;;;4997770;28;20620;-80
2022/02/22 11:57:07;;;;;;;8.70;1.70;;;8.20;99.90;;;;;;5016610;28;20645;-80
2022/02/22 11:59:53;;;;;;;6.10;1.40;;;8.20;99.90;;;;;;4998056;28;20213;-82
2022/02/22 12:02:34;;;;;;;8.93;1.57;;;8.20;99.90;;;;;;5014339;28;20748;-80
2022/02/22 12:05:21;;;;;;;9.87;2.30;;;8.50;99.90;;;;;;5001216;28;20722;-83
2022/02/22 12:08:01;;;;;;;6.93;1.33;;;8.40;99.90;;;;;;5007520;28;20235;-80
2022/02/22 12:10:28;;;;;;;8.93;1.77;;;8.50;99.90;;;;;;4997153;28;20223;-83
2022/02/22 12:13:17;;;;;;;3.53;1.30;;;8.50;99.90;;;;;;4998265;28;20730;-82
2022/02/22 12:15:43;;;;;;;6.30;1.70;;;8.40;99.90;;;;;;4994245;28;20214;-82
2022/02/22 12:18:25;;;;;;;9.40;1.73;;;8.30;99.90;;;;;;5014931;28;20196;-80
2022/02/22 12:20:53;;;;;;;5.97;1.57;;;8.30;99.90;;;;;;5002780;28;20280;-81
2022/02/22 12:23:27;;;;;;;6.60;2.33;;;8.10;99.90;;;;;;5001112;28;20191;-83
2022/02/22 12:25:55;;;;;;;5.97;1.50;;;8.10;99.90;;;;;;5016399;28;20184;-80
2022/02/22 12:28:23;;;;;;;7.13;1.90;;;8.20;99.90;;;;;;5016489;28;20670;-80
2022/02/22 12:30:50;;;;;;;6.93;1.63;;;8.10;99.90;;;;;;4997106;28;20283;-83
2022/02/22 12:33:17;;;;;;;9.33;1.30;;;8.00;99.90;;;;;;5008622;28;20187;-84
2022/02/22 12:35:45;;;;;;;4.77;1.43;;;8.00;99.90;;;;;;5003397;28;20529;-84
2022/02/22 12:38:23;;;;;;;9.37;1.33;;;7.90;99.90;;;;;;4999679;28;20991;-79
2022/02/22 12:40:50;;;;;;;8.30;1.33;;;8.00;99.90;;;;;;4998602;28;20585;-79
2022/02/22 12:43:17;;;;;;;5.63;1.20;;;8.10;99.90;;;;;;5014142;28;20214;-80
2022/02/22 12:46:00;;;;;;;4.83;1.40;;;8.10;99.90;;;;;;4999735;28;20197;-83
2022/02/22 12:48:28;;;;;;;5.93;1.67;;;8.10;99.90;;;;;;5018274;28;20259;-84
2022/02/22 12:50:55;;;;;;;9.10;2.50;;;8.10;99.90;;;;;;4995198;28;20200;-79
2022/02/22 12:53:25;;;;;;;8.57;1.63;;;8.10;99.90;;;;;;5008993;28;20188;-78